sensor_id;sensor_type;location;lat;lon;timestamp;P1;durP1;ratioP1;P2;durP2;ratioP2
15317;SDS011;7759;52.528;13.346;2024-02-21T00:01:42;13.77;;;3.97;;
15317;SDS011;7759;52.528;13.346;2024-02-21T00:04:08;5.53;;;2.77;;
15317;SDS011;7759;52.528;13.346;2024-02-21T00:06:35;10.67;;;3.20;;
15317;SDS011;7759;52.528;13.346;2024-02-21T00:09:01;11.13;;;2.87;;
15317;SDS011;7759;52.528;13.346;2024-02-21T00:11:27;8.77;;;3.03;;
15317;SDS011;7759;52.528;13.346;2024-02-21T00:13:53;9.50;;;2.83;;
15317;SDS011;7759;52.528;13.346;2024-02-21T00:16:22;6.40;;;3.20;;
15317;SDS011;7759;52.528;13.346;2024-02-21T00:18:48;7.23;;;2.57;;
15317;SDS011;7759;52.528;13.346;2024-02-21T00:21:14;9.50;;;2.90;;
15317;SDS011;7759;52.528;13.346;2024-02-21T00:23:43;7.90;;;2.73;;
15317;SDS011;7759;52.528;13.346;2024-02-21T00:26:10;9.33;;;3.37;;
15317;SDS011;7759;52.528;13.346;2024-02-21T00:28:36;8.87;;;3.07;;
15317;SDS011;7759;52.528;13.346;2024-02-21T00:31:02;6.90;;;2.77;;
15317;SDS011;7759;52.528;13.346;2024-02-21T00:33:28;8.10;;;2.80;;
15317;SDS011;7759;52.528;13.346;2024-02-21T00:35:54;11.10;;;2.90;;
15317;SDS011;7759;52.528;13.346;2024-02-21T00:38:20;6.10;;;2.63;;
15317;SDS011;7759;52.528;13.346;2024-02-21T00:40:46;4.40;;;2.13;;
15317;SDS011;7759;52.528;13.346;2024-02-21T00:43:12;11.70;;;2.70;;
15317;SDS011;7759;52.528;13.346;2024-02-21T00:45:37;13.47;;;3.90;;
15317;SDS011;7759;52.528;13.346;2024-02-21T00:48:04;9.70;;;2.57;;
15317;SDS011;7759;52.528;13.346;2024-02-21T00:50:30;5.97;;;3.33;;
15317;SDS011;7759;52.528;13.346;2024-02-21T00:52:56;7.07;;;2.30;;
15317;SDS011;7759;52.528;13.346;2024-02-21T00:55:22;10.40;;;2.40;;
15317;SDS011;7759;52.528;13.346;2024-02-21T00:57:47;8.53;;;2.70;;
15317;SDS011;7759;52.528;13.346;2024-02-21T01:00:13;4.30;;;2.30;;
15317;SDS011;7759;52.528;13.346;2024-02-21T01:02:39;5.93;;;2.30;;
15317;SDS011;7759;52.528;13.346;2024-02-21T01:05:05;8.53;;;2.53;;
15317;SDS011;7759;52.528;13.346;2024-02-21T01:07:31;5.90;;;2.77;;
15317;SDS011;7759;52.528;13.346;2024-02-21T01:09:57;8.43;;;3.33;;
15317;SDS011;7759;52.528;13.346;2024-02-21T01:12:23;7.63;;;2.67;;
15317;SDS011;7759;52.528;13.346;2024-02-21T01:14:49;9.00;;;2.63;;
15317;SDS011;7759;52.528;13.346;2024-02-21T01:17:15;9.17;;;2.57;;
15317;SDS011;7759;52.528;13.346;2024-02-21T01:19:41;6.43;;;2.60;;
15317;SDS011;7759;52.528;13.346;2024-02-21T01:22:07;9.00;;;2.47;;
15317;SDS011;7759;52.528;13.346;2024-02-21T01:24:33;10.00;;;2.83;;
15317;SDS011;7759;52.528;13.346;2024-02-21T01:26:59;7.23;;;2.47;;
15317;SDS011;7759;52.528;13.346;2024-02-21T01:29:25;7.43;;;2.20;;
15317;SDS011;7759;52.528;13.346;2024-02-21T01:31:50;7.47;;;2.50;;
15317;SDS011;7759;52.528;13.346;2024-02-21T01:34:16;8.83;;;3.03;;
15317;SDS011;7759;52.528;13.346;2024-02-21T01:36:42;10.03;;;2.23;;
15317;SDS011;7759;52.528;13.346;2024-02-21T01:39:08;8.17;;;2.47;;
15317;SDS011;7759;52.528;13.346;2024-02-21T01:41:34;4.00;;;2.47;;
15317;SDS011;7759;52.528;13.346;2024-02-21T01:44:00;9.17;;;2.97;;
15317;SDS011;7759;52.528;13.346;2024-02-21T01:46:26;7.07;;;2.43;;
15317;SDS011;7759;52.528;13.346;2024-02-21T01:48:54;5.47;;;2.43;;
15317;SDS011;7759;52.528;13.346;2024-02-21T01:51:20;5.73;;;2.50;;
15317;SDS011;7759;52.528;13.346;2024-02-21T01:53:46;8.10;;;2.67;;
15317;SDS011;7759;52.528;13.346;2024-02-21T01:56:12;7.47;;;2.70;;
15317;SDS011;7759;52.528;13.346;2024-02-21T01:58:39;3.80;;;2.50;;
15317;SDS011;7759;52.528;13.346;2024-02-21T02:01:06;4.53;;;1.90;;
15317;SDS011;7759;52.528;13.346;2024-02-21T02:03:32;9.93;;;2.30;;
15317;SDS011;7759;52.528;13.346;2024-02-21T02:05:58;10.23;;;2.77;;
15317;SDS011;7759;52.528;13.346;2024-02-21T02:08:23;7.87;;;2.87;;
15317;SDS011;7759;52.528;13.346;2024-02-21T02:10:49;7.57;;;2.60;;
15317;SDS011;7759;52.528;13.346;2024-02-21T02:13:15;6.70;;;2.37;;
15317;SDS011;7759;52.528;13.346;2024-02-21T02:15:42;10.53;;;3.07;;
15317;SDS011;7759;52.528;13.346;2024-02-21T02:18:08;10.70;;;2.90;;
15317;SDS011;7759;52.528;13.346;2024-02-21T02:20:35;6.47;;;2.83;;
15317;SDS011;7759;52.528;13.346;2024-02-21T02:23:10;5.50;;;1.53;;
15317;SDS011;7759;52.528;13.346;2024-02-21T02:25:37;3.53;;;1.60;;
15317;SDS011;7759;52.528;13.346;2024-02-21T02:28:03;9.27;;;2.77;;
15317;SDS011;7759;52.528;13.346;2024-02-21T02:30:33;7.17;;;2.73;;
15317;SDS011;7759;52.528;13.346;2024-02-21T02:32:59;5.07;;;2.00;;
15317;SDS011;7759;52.528;13.346;2024-02-21T02:35:25;6.00;;;2.03;;
15317;SDS011;7759;52.528;13.346;2024-02-21T02:37:51;4.87;;;1.90;;
15317;SDS011;7759;52.528;13.346;2024-02-21T02:40:18;4.43;;;2.20;;
15317;SDS011;7759;52.528;13.346;2024-02-21T02:42:43;6.63;;;2.57;;
15317;SDS011;7759;52.528;13.346;2024-02-21T02:45:09;3.10;;;1.80;;
15317;SDS011;7759;52.528;13.346;2024-02-21T02:47:35;3.07;;;2.07;;
15317;SDS011;7759;52.528;13.346;2024-02-21T02:50:01;7.17;;;2.07;;
15317;SDS011;7759;52.528;13.346;2024-02-21T02:52:27;4.50;;;2.20;;
15317;SDS011;7759;52.528;13.346;2024-02-21T02:54:53;6.83;;;2.53;;
15317;SDS011;7759;52.528;13.346;2024-02-21T02:57:20;3.27;;;1.90;;
15317;SDS011;7759;52.528;13.346;2024-02-21T02:59:47;4.87;;;2.20;;
15317;SDS011;7759;52.528;13.346;2024-02-21T03:02:13;2.37;;;1.67;;
15317;SDS011;7759;52.528;13.346;2024-02-21T03:04:39;6.97;;;2.53;;
15317;SDS011;7759;52.528;13.346;2024-02-21T03:07:05;4.70;;;2.07;;
15317;SDS011;7759;52.528;13.346;2024-02-21T03:09:31;8.20;;;2.60;;
15317;SDS011;7759;52.528;13.346;2024-02-21T03:11:57;6.53;;;2.20;;
15317;SDS011;7759;52.528;13.346;2024-02-21T03:14:27;6.07;;;1.83;;
15317;SDS011;7759;52.528;13.346;2024-02-21T03:16:53;8.47;;;2.90;;
15317;SDS011;7759;52.528;13.346;2024-02-21T03:19:19;6.87;;;2.60;;
15317;SDS011;7759;52.528;13.346;2024-02-21T03:21:45;4.70;;;2.27;;
15317;SDS011;7759;52.528;13.346;2024-02-21T03:24:11;5.87;;;2.50;;
15317;SDS011;7759;52.528;13.346;2024-02-21T03:26:37;6.10;;;3.17;;
15317;SDS011;7759;52.528;13.346;2024-02-21T03:29:03;8.33;;;3.03;;
15317;SDS011;7759;52.528;13.346;2024-02-21T03:31:29;5.20;;;2.00;;
15317;SDS011;7759;52.528;13.346;2024-02-21T03:33:55;3.73;;;2.10;;
15317;SDS011;7759;52.528;13.346;2024-02-21T03:36:21;7.60;;;2.67;;
15317;SDS011;7759;52.528;13.346;2024-02-21T03:38:47;5.77;;;2.27;;
15317;SDS011;7759;52.528;13.346;2024-02-21T03:41:13;4.93;;;2.70;;
15317;SDS011;7759;52.528;13.346;2024-02-21T03:43:40;9.03;;;3.00;;
15317;SDS011;7759;52.528;13.346;2024-02-21T03:46:06;6.90;;;2.47;;
15317;SDS011;7759;52.528;13.346;2024-02-21T03:48:32;7.27;;;2.83;;
15317;SDS011;7759;52.528;13.346;2024-02-21T03:50:58;8.53;;;2.87;;
15317;SDS011;7759;52.528;13.346;2024-02-21T03:53:24;5.00;;;2.80;;
15317;SDS011;7759;52.528;13.346;2024-02-21T03:55:50;8.97;;;3.23;;
15317;SDS011;7759;52.528;13.346;2024-02-21T03:58:16;7.10;;;3.17;;
15317;SDS011;7759;52.528;13.346;2024-02-21T04:00:42;6.60;;;2.30;;
15317;SDS011;7759;52.528;13.346;2024-02-21T04:03:07;6.33;;;2.80;;
15317;SDS011;7759;52.528;13.346;2024-02-21T04:05:33;9.23;;;2.67;;
15317;SDS011;7759;52.528;13.346;2024-02-21T04:07:59;9.67;;;3.00;;
15317;SDS011;7759;52.528;13.346;2024-02-21T04:10:25;10.33;;;3.40;;
15317;SDS011;7759;52.528;13.346;2024-02-21T04:12:51;7.43;;;2.77;;
15317;SDS011;7759;52.528;13.346;2024-02-21T04:15:17;14.10;;;3.60;;
15317;SDS011;7759;52.528;13.346;2024-02-21T04:17:44;6.50;;;3.00;;
15317;SDS011;7759;52.528;13.346;2024-02-21T04:20:13;5.63;;;2.60;;
15317;SDS011;7759;52.528;13.346;2024-02-21T04:22:39;6.50;;;3.27;;
15317;SDS011;7759;52.528;13.346;2024-02-21T04:25:05;11.00;;;3.17;;
15317;SDS011;7759;52.528;13.346;2024-02-21T04:27:31;7.13;;;2.80;;
15317;SDS011;7759;52.528;13.346;2024-02-21T04:29:58;7.30;;;3.00;;
15317;SDS011;7759;52.528;13.346;2024-02-21T04:32:24;8.83;;;3.13;;
15317;SDS011;7759;52.528;13.346;2024-02-21T04:34:52;10.00;;;3.20;;
15317;SDS011;7759;52.528;13.346;2024-02-21T04:37:18;7.93;;;2.70;;
15317;SDS011;7759;52.528;13.346;2024-02-21T04:39:44;10.50;;;2.70;;
15317;SDS011;7759;52.528;13.346;2024-02-21T04:42:10;10.03;;;3.37;;
15317;SDS011;7759;52.528;13.346;2024-02-21T04:44:36;9.33;;;3.00;;
15317;SDS011;7759;52.528;13.346;2024-02-21T04:47:02;10.23;;;3.33;;
15317;SDS011;7759;52.528;13.346;2024-02-21T04:49:28;5.47;;;2.50;;
15317;SDS011;7759;52.528;13.346;2024-02-21T04:51:54;4.97;;;3.30;;
15317;SDS011;7759;52.528;13.346;2024-02-21T04:54:20;4.57;;;2.83;;
15317;SDS011;7759;52.528;13.346;2024-02-21T04:56:46;12.43;;;3.37;;
15317;SDS011;7759;52.528;13.346;2024-02-21T04:59:12;5.60;;;2.90;;
15317;SDS011;7759;52.528;13.346;2024-02-21T05:01:38;7.13;;;3.37;;
15317;SDS011;7759;52.528;13.346;2024-02-21T05:04:04;9.00;;;3.37;;
15317;SDS011;7759;52.528;13.346;2024-02-21T05:06:30;10.30;;;3.70;;
15317;SDS011;7759;52.528;13.346;2024-02-21T05:08:56;9.43;;;3.10;;
15317;SDS011;7759;52.528;13.346;2024-02-21T05:11:22;5.47;;;2.93;;
15317;SDS011;7759;52.528;13.346;2024-02-21T05:13:48;12.73;;;3.83;;
15317;SDS011;7759;52.528;13.346;2024-02-21T05:16:14;6.80;;;3.30;;
15317;SDS011;7759;52.528;13.346;2024-02-21T05:18:40;7.70;;;2.70;;
15317;SDS011;7759;52.528;13.346;2024-02-21T05:21:07;7.90;;;3.30;;
15317;SDS011;7759;52.528;13.346;2024-02-21T05:23:33;10.67;;;3.80;;
15317;SDS011;7759;52.528;13.346;2024-02-21T05:25:59;8.00;;;3.03;;
15317;SDS011;7759;52.528;13.346;2024-02-21T05:28:25;9.23;;;3.60;;
15317;SDS011;7759;52.528;13.346;2024-02-21T05:30:51;10.10;;;3.50;;
15317;SDS011;7759;52.528;13.346;2024-02-21T05:33:17;6.70;;;3.43;;
15317;SDS011;7759;52.528;13.346;2024-02-21T05:35:46;6.17;;;3.23;;
15317;SDS011;7759;52.528;13.346;2024-02-21T05:38:13;10.83;;;3.97;;
15317;SDS011;7759;52.528;13.346;2024-02-21T05:40:39;9.90;;;3.60;;
15317;SDS011;7759;52.528;13.346;2024-02-21T05:43:06;8.80;;;3.53;;
15317;SDS011;7759;52.528;13.346;2024-02-21T05:45:32;9.97;;;3.40;;
15317;SDS011;7759;52.528;13.346;2024-02-21T05:47:58;11.63;;;3.67;;
15317;SDS011;7759;52.528;13.346;2024-02-21T05:50:24;7.20;;;3.50;;
15317;SDS011;7759;52.528;13.346;2024-02-21T05:52:51;9.23;;;3.33;;
15317;SDS011;7759;52.528;13.346;2024-02-21T05:55:17;5.67;;;3.27;;
15317;SDS011;7759;52.528;13.346;2024-02-21T05:57:43;10.23;;;3.53;;
15317;SDS011;7759;52.528;13.346;2024-02-21T06:00:09;8.40;;;3.70;;
15317;SDS011;7759;52.528;13.346;2024-02-21T06:02:35;6.40;;;3.40;;
15317;SDS011;7759;52.528;13.346;2024-02-21T06:05:01;5.60;;;3.63;;
15317;SDS011;7759;52.528;13.346;2024-02-21T06:07:27;7.37;;;4.07;;
15317;SDS011;7759;52.528;13.346;2024-02-21T06:09:53;8.83;;;3.33;;
15317;SDS011;7759;52.528;13.346;2024-02-21T06:12:19;8.20;;;3.70;;
15317;SDS011;7759;52.528;13.346;2024-02-21T06:14:45;6.40;;;3.40;;
15317;SDS011;7759;52.528;13.346;2024-02-21T06:17:11;6.70;;;3.23;;
15317;SDS011;7759;52.528;13.346;2024-02-21T06:19:39;7.50;;;2.63;;
15317;SDS011;7759;52.528;13.346;2024-02-21T06:22:06;9.10;;;3.47;;
15317;SDS011;7759;52.528;13.346;2024-02-21T06:24:33;8.77;;;3.03;;
15317;SDS011;7759;52.528;13.346;2024-02-21T06:26:58;6.57;;;3.67;;
15317;SDS011;7759;52.528;13.346;2024-02-21T06:29:24;9.53;;;3.00;;
15317;SDS011;7759;52.528;13.346;2024-02-21T06:31:50;4.63;;;3.07;;
15317;SDS011;7759;52.528;13.346;2024-02-21T06:34:16;6.60;;;3.53;;
15317;SDS011;7759;52.528;13.346;2024-02-21T06:36:42;11.27;;;4.17;;
15317;SDS011;7759;52.528;13.346;2024-02-21T06:39:08;8.67;;;3.77;;
15317;SDS011;7759;52.528;13.346;2024-02-21T06:41:36;7.70;;;3.43;;
15317;SDS011;7759;52.528;13.346;2024-02-21T06:44:02;9.87;;;3.17;;
15317;SDS011;7759;52.528;13.346;2024-02-21T06:46:28;7.30;;;3.40;;
15317;SDS011;7759;52.528;13.346;2024-02-21T06:48:55;5.27;;;3.27;;
15317;SDS011;7759;52.528;13.346;2024-02-21T06:51:25;10.27;;;4.00;;
15317;SDS011;7759;52.528;13.346;2024-02-21T06:53:50;5.83;;;3.20;;
15317;SDS011;7759;52.528;13.346;2024-02-21T06:56:16;11.83;;;3.30;;
15317;SDS011;7759;52.528;13.346;2024-02-21T06:58:42;8.80;;;3.77;;
15317;SDS011;7759;52.528;13.346;2024-02-21T07:01:08;8.63;;;5.20;;
15317;SDS011;7759;52.528;13.346;2024-02-21T07:03:34;8.70;;;2.80;;
15317;SDS011;7759;52.528;13.346;2024-02-21T07:06:00;7.17;;;3.53;;
15317;SDS011;7759;52.528;13.346;2024-02-21T07:08:26;6.87;;;2.93;;
15317;SDS011;7759;52.528;13.346;2024-02-21T07:10:52;11.43;;;4.90;;
15317;SDS011;7759;52.528;13.346;2024-02-21T07:13:18;10.67;;;4.00;;
15317;SDS011;7759;52.528;13.346;2024-02-21T07:15:44;6.30;;;3.40;;
15317;SDS011;7759;52.528;13.346;2024-02-21T07:18:10;4.67;;;2.73;;
15317;SDS011;7759;52.528;13.346;2024-02-21T07:20:35;4.03;;;2.70;;
15317;SDS011;7759;52.528;13.346;2024-02-21T07:23:02;8.73;;;3.70;;
15317;SDS011;7759;52.528;13.346;2024-02-21T07:25:28;6.60;;;3.37;;
15317;SDS011;7759;52.528;13.346;2024-02-21T07:27:54;10.27;;;3.47;;
15317;SDS011;7759;52.528;13.346;2024-02-21T07:30:20;8.30;;;4.20;;
15317;SDS011;7759;52.528;13.346;2024-02-21T07:32:48;7.63;;;3.30;;
15317;SDS011;7759;52.528;13.346;2024-02-21T07:35:15;6.53;;;3.80;;
15317;SDS011;7759;52.528;13.346;2024-02-21T07:37:40;5.20;;;3.07;;
15317;SDS011;7759;52.528;13.346;2024-02-21T07:40:11;6.07;;;3.40;;
15317;SDS011;7759;52.528;13.346;2024-02-21T07:42:37;7.97;;;3.50;;
15317;SDS011;7759;52.528;13.346;2024-02-21T07:45:03;6.77;;;2.87;;
15317;SDS011;7759;52.528;13.346;2024-02-21T07:47:29;6.90;;;3.00;;
15317;SDS011;7759;52.528;13.346;2024-02-21T07:49:55;4.80;;;2.83;;
15317;SDS011;7759;52.528;13.346;2024-02-21T07:52:21;6.37;;;3.07;;
15317;SDS011;7759;52.528;13.346;2024-02-21T07:54:47;5.83;;;3.00;;
15317;SDS011;7759;52.528;13.346;2024-02-21T07:57:13;5.30;;;2.70;;
15317;SDS011;7759;52.528;13.346;2024-02-21T07:59:39;6.30;;;3.07;;
15317;SDS011;7759;52.528;13.346;2024-02-21T08:02:05;6.37;;;2.73;;
15317;SDS011;7759;52.528;13.346;2024-02-21T08:04:31;5.33;;;2.13;;
15317;SDS011;7759;52.528;13.346;2024-02-21T08:06:58;5.03;;;2.80;;
15317;SDS011;7759;52.528;13.346;2024-02-21T08:09:26;7.23;;;3.30;;
15317;SDS011;7759;52.528;13.346;2024-02-21T08:11:53;6.97;;;3.30;;
15317;SDS011;7759;52.528;13.346;2024-02-21T08:14:19;4.97;;;2.57;;
15317;SDS011;7759;52.528;13.346;2024-02-21T08:16:45;9.97;;;3.37;;
15317;SDS011;7759;52.528;13.346;2024-02-21T08:19:11;7.57;;;3.40;;
15317;SDS011;7759;52.528;13.346;2024-02-21T08:21:37;6.93;;;3.27;;
15317;SDS011;7759;52.528;13.346;2024-02-21T08:24:03;5.37;;;3.23;;
15317;SDS011;7759;52.528;13.346;2024-02-21T08:26:29;4.40;;;2.30;;
15317;SDS011;7759;52.528;13.346;2024-02-21T08:28:56;3.43;;;2.37;;
15317;SDS011;7759;52.528;13.346;2024-02-21T08:31:25;5.53;;;2.30;;
15317;SDS011;7759;52.528;13.346;2024-02-21T08:33:59;5.53;;;2.60;;
15317;SDS011;7759;52.528;13.346;2024-02-21T08:36:30;4.83;;;2.43;;
15317;SDS011;7759;52.528;13.346;2024-02-21T08:38:57;6.17;;;2.80;;
15317;SDS011;7759;52.528;13.346;2024-02-21T08:41:23;8.30;;;2.70;;
15317;SDS011;7759;52.528;13.346;2024-02-21T08:43:50;7.90;;;3.33;;
15317;SDS011;7759;52.528;13.346;2024-02-21T08:46:16;4.33;;;2.57;;
15317;SDS011;7759;52.528;13.346;2024-02-21T08:48:42;5.63;;;2.77;;
15317;SDS011;7759;52.528;13.346;2024-02-21T08:51:11;5.73;;;2.27;;
15317;SDS011;7759;52.528;13.346;2024-02-21T08:53:37;8.97;;;3.70;;
15317;SDS011;7759;52.528;13.346;2024-02-21T08:56:03;6.77;;;3.17;;
15317;SDS011;7759;52.528;13.346;2024-02-21T08:58:29;6.47;;;2.60;;
15317;SDS011;7759;52.528;13.346;2024-02-21T09:00:55;4.80;;;2.80;;
15317;SDS011;7759;52.528;13.346;2024-02-21T09:03:21;8.07;;;3.60;;
15317;SDS011;7759;52.528;13.346;2024-02-21T09:05:47;6.83;;;3.03;;
15317;SDS011;7759;52.528;13.346;2024-02-21T09:08:13;6.67;;;3.50;;
15317;SDS011;7759;52.528;13.346;2024-02-21T09:10:39;8.83;;;3.47;;
15317;SDS011;7759;52.528;13.346;2024-02-21T09:13:05;5.47;;;2.57;;
15317;SDS011;7759;52.528;13.346;2024-02-21T09:15:33;7.23;;;3.00;;
15317;SDS011;7759;52.528;13.346;2024-02-21T09:17:58;7.37;;;3.90;;
15317;SDS011;7759;52.528;13.346;2024-02-21T09:20:24;6.27;;;3.53;;
15317;SDS011;7759;52.528;13.346;2024-02-21T09:22:50;10.27;;;4.67;;
15317;SDS011;7759;52.528;13.346;2024-02-21T09:25:17;5.87;;;3.03;;
15317;SDS011;7759;52.528;13.346;2024-02-21T09:27:44;8.70;;;3.93;;
15317;SDS011;7759;52.528;13.346;2024-02-21T09:30:10;6.43;;;3.37;;
15317;SDS011;7759;52.528;13.346;2024-02-21T09:32:36;5.23;;;3.20;;
15317;SDS011;7759;52.528;13.346;2024-02-21T09:35:02;4.43;;;3.00;;
15317;SDS011;7759;52.528;13.346;2024-02-21T09:37:28;6.00;;;3.93;;
15317;SDS011;7759;52.528;13.346;2024-02-21T09:39:54;11.57;;;4.03;;
15317;SDS011;7759;52.528;13.346;2024-02-21T09:42:21;8.53;;;3.63;;
15317;SDS011;7759;52.528;13.346;2024-02-21T09:44:47;10.03;;;4.53;;
15317;SDS011;7759;52.528;13.346;2024-02-21T09:47:17;6.93;;;4.10;;
15317;SDS011;7759;52.528;13.346;2024-02-21T09:49:44;5.77;;;3.67;;
15317;SDS011;7759;52.528;13.346;2024-02-21T09:52:11;9.73;;;4.30;;
15317;SDS011;7759;52.528;13.346;2024-02-21T09:54:39;12.17;;;5.03;;
15317;SDS011;7759;52.528;13.346;2024-02-21T09:57:06;8.77;;;4.20;;
15317;SDS011;7759;52.528;13.346;2024-02-21T09:59:32;5.03;;;3.40;;
15317;SDS011;7759;52.528;13.346;2024-02-21T10:01:58;7.07;;;4.10;;
15317;SDS011;7759;52.528;13.346;2024-02-21T10:04:25;6.20;;;3.33;;
15317;SDS011;7759;52.528;13.346;2024-02-21T10:06:51;11.13;;;4.27;;
15317;SDS011;7759;52.528;13.346;2024-02-21T10:09:21;10.23;;;4.57;;
15317;SDS011;7759;52.528;13.346;2024-02-21T10:11:47;9.00;;;4.60;;
15317;SDS011;7759;52.528;13.346;2024-02-21T10:14:14;7.73;;;4.57;;
15317;SDS011;7759;52.528;13.346;2024-02-21T10:16:40;11.50;;;4.30;;
15317;SDS011;7759;52.528;13.346;2024-02-21T10:19:07;4.97;;;3.20;;
15317;SDS011;7759;52.528;13.346;2024-02-21T10:21:41;6.77;;;3.70;;
15317;SDS011;7759;52.528;13.346;2024-02-21T10:24:07;5.87;;;3.77;;
15317;SDS011;7759;52.528;13.346;2024-02-21T10:26:35;8.30;;;4.73;;
15317;SDS011;7759;52.528;13.346;2024-02-21T10:29:02;8.43;;;4.23;;
15317;SDS011;7759;52.528;13.346;2024-02-21T10:31:28;9.20;;;4.13;;
15317;SDS011;7759;52.528;13.346;2024-02-21T10:33:57;7.97;;;3.90;;
15317;SDS011;7759;52.528;13.346;2024-02-21T10:36:23;6.60;;;3.50;;
15317;SDS011;7759;52.528;13.346;2024-02-21T10:38:50;10.70;;;4.03;;
15317;SDS011;7759;52.528;13.346;2024-02-21T10:41:15;8.03;;;4.20;;
15317;SDS011;7759;52.528;13.346;2024-02-21T10:43:42;8.13;;;3.87;;
15317;SDS011;7759;52.528;13.346;2024-02-21T10:46:10;5.00;;;3.07;;
15317;SDS011;7759;52.528;13.346;2024-02-21T10:48:42;7.33;;;4.63;;
15317;SDS011;7759;52.528;13.346;2024-02-21T10:51:14;6.40;;;2.97;;
15317;SDS011;7759;52.528;13.346;2024-02-21T10:54:24;5.40;;;3.07;;
15317;SDS011;7759;52.528;13.346;2024-02-21T10:56:31;6.03;;;3.00;;
15317;SDS011;7759;52.528;13.346;2024-02-21T10:59:01;6.67;;;3.40;;
15317;SDS011;7759;52.528;13.346;2024-02-21T11:01:28;7.27;;;3.60;;
15317;SDS011;7759;52.528;13.346;2024-02-21T11:03:56;7.33;;;4.13;;
15317;SDS011;7759;52.528;13.346;2024-02-21T11:06:22;7.87;;;3.83;;
15317;SDS011;7759;52.528;13.346;2024-02-21T11:11:27;8.70;;;4.77;;
15317;SDS011;7759;52.528;13.346;2024-02-21T11:14:03;5.50;;;3.80;;
15317;SDS011;7759;52.528;13.346;2024-02-21T11:16:34;5.70;;;3.47;;
15317;SDS011;7759;52.528;13.346;2024-02-21T11:19:07;6.67;;;2.97;;
15317;SDS011;7759;52.528;13.346;2024-02-21T11:21:34;7.73;;;4.23;;
15317;SDS011;7759;52.528;13.346;2024-02-21T11:24:01;5.17;;;3.20;;
15317;SDS011;7759;52.528;13.346;2024-02-21T11:26:28;5.63;;;3.50;;
15317;SDS011;7759;52.528;13.346;2024-02-21T11:29:00;8.20;;;3.50;;
15317;SDS011;7759;52.528;13.346;2024-02-21T11:31:40;4.83;;;2.90;;
15317;SDS011;7759;52.528;13.346;2024-02-21T11:34:12;3.83;;;2.43;;
15317;SDS011;7759;52.528;13.346;2024-02-21T11:36:51;4.67;;;2.80;;
15317;SDS011;7759;52.528;13.346;2024-02-21T11:39:20;3.60;;;2.57;;
15317;SDS011;7759;52.528;13.346;2024-02-21T11:41:47;5.27;;;3.03;;
15317;SDS011;7759;52.528;13.346;2024-02-21T11:44:13;5.03;;;2.70;;
15317;SDS011;7759;52.528;13.346;2024-02-21T11:46:39;3.50;;;2.27;;
15317;SDS011;7759;52.528;13.346;2024-02-21T11:49:05;3.80;;;2.27;;
15317;SDS011;7759;52.528;13.346;2024-02-21T11:51:31;3.63;;;2.73;;
15317;SDS011;7759;52.528;13.346;2024-02-21T11:53:57;5.57;;;3.50;;
15317;SDS011;7759;52.528;13.346;2024-02-21T11:56:23;4.23;;;3.00;;
15317;SDS011;7759;52.528;13.346;2024-02-21T11:58:49;6.60;;;3.00;;
15317;SDS011;7759;52.528;13.346;2024-02-21T12:01:15;7.77;;;3.77;;
15317;SDS011;7759;52.528;13.346;2024-02-21T12:03:42;6.00;;;3.00;;
15317;SDS011;7759;52.528;13.346;2024-02-21T12:06:14;3.13;;;2.20;;
15317;SDS011;7759;52.528;13.346;2024-02-21T12:08:44;6.67;;;2.80;;
15317;SDS011;7759;52.528;13.346;2024-02-21T12:11:18;7.23;;;2.80;;
15317;SDS011;7759;52.528;13.346;2024-02-21T12:13:44;4.60;;;2.63;;
15317;SDS011;7759;52.528;13.346;2024-02-21T12:16:10;3.33;;;2.67;;
15317;SDS011;7759;52.528;13.346;2024-02-21T12:18:36;4.10;;;2.63;;
15317;SDS011;7759;52.528;13.346;2024-02-21T12:21:02;5.17;;;2.93;;
15317;SDS011;7759;52.528;13.346;2024-02-21T12:23:30;5.47;;;2.80;;
15317;SDS011;7759;52.528;13.346;2024-02-21T12:25:56;5.13;;;2.77;;
15317;SDS011;7759;52.528;13.346;2024-02-21T12:28:23;5.53;;;2.80;;
15317;SDS011;7759;52.528;13.346;2024-02-21T12:30:49;4.80;;;2.43;;
15317;SDS011;7759;52.528;13.346;2024-02-21T12:33:15;3.07;;;2.47;;
15317;SDS011;7759;52.528;13.346;2024-02-21T12:35:40;4.67;;;2.70;;
15317;SDS011;7759;52.528;13.346;2024-02-21T12:38:06;5.40;;;2.63;;
15317;SDS011;7759;52.528;13.346;2024-02-21T12:40:32;5.27;;;2.23;;
15317;SDS011;7759;52.528;13.346;2024-02-21T12:42:59;5.37;;;2.53;;
15317;SDS011;7759;52.528;13.346;2024-02-21T12:45:28;4.90;;;2.30;;
15317;SDS011;7759;52.528;13.346;2024-02-21T12:47:54;3.87;;;2.23;;
15317;SDS011;7759;52.528;13.346;2024-02-21T12:50:20;4.13;;;1.97;;
15317;SDS011;7759;52.528;13.346;2024-02-21T12:52:47;4.53;;;2.30;;
15317;SDS011;7759;52.528;13.346;2024-02-21T12:55:14;4.50;;;2.40;;
15317;SDS011;7759;52.528;13.346;2024-02-21T12:57:41;3.80;;;2.37;;
15317;SDS011;7759;52.528;13.346;2024-02-21T13:00:07;2.27;;;1.70;;
15317;SDS011;7759;52.528;13.346;2024-02-21T13:02:34;5.33;;;2.53;;
15317;SDS011;7759;52.528;13.346;2024-02-21T13:04:59;3.40;;;2.03;;
15317;SDS011;7759;52.528;13.346;2024-02-21T13:07:27;3.57;;;2.13;;
15317;SDS011;7759;52.528;13.346;2024-02-21T13:09:53;3.17;;;1.90;;
15317;SDS011;7759;52.528;13.346;2024-02-21T13:12:19;4.30;;;2.10;;
15317;SDS011;7759;52.528;13.346;2024-02-21T13:14:45;2.67;;;1.80;;
15317;SDS011;7759;52.528;13.346;2024-02-21T13:17:11;3.97;;;2.80;;
15317;SDS011;7759;52.528;13.346;2024-02-21T13:19:36;4.37;;;1.90;;
15317;SDS011;7759;52.528;13.346;2024-02-21T13:22:03;2.53;;;1.90;;
15317;SDS011;7759;52.528;13.346;2024-02-21T13:24:30;5.17;;;2.67;;
15317;SDS011;7759;52.528;13.346;2024-02-21T13:26:56;3.27;;;1.83;;
15317;SDS011;7759;52.528;13.346;2024-02-21T13:29:22;4.83;;;2.30;;
15317;SDS011;7759;52.528;13.346;2024-02-21T13:31:48;4.80;;;2.10;;
15317;SDS011;7759;52.528;13.346;2024-02-21T13:34:14;6.97;;;2.93;;
15317;SDS011;7759;52.528;13.346;2024-02-21T13:36:42;5.13;;;2.00;;
15317;SDS011;7759;52.528;13.346;2024-02-21T13:39:07;4.53;;;2.57;;
15317;SDS011;7759;52.528;13.346;2024-02-21T13:41:37;5.50;;;3.07;;
15317;SDS011;7759;52.528;13.346;2024-02-21T13:44:03;4.43;;;2.00;;
15317;SDS011;7759;52.528;13.346;2024-02-21T13:46:29;5.97;;;2.70;;
15317;SDS011;7759;52.528;13.346;2024-02-21T13:49:01;4.27;;;2.07;;
15317;SDS011;7759;52.528;13.346;2024-02-21T13:51:29;5.10;;;2.57;;
15317;SDS011;7759;52.528;13.346;2024-02-21T13:53:55;2.87;;;1.87;;
15317;SDS011;7759;52.528;13.346;2024-02-21T13:56:21;5.53;;;2.37;;
15317;SDS011;7759;52.528;13.346;2024-02-21T13:58:47;10.77;;;4.13;;
15317;SDS011;7759;52.528;13.346;2024-02-21T14:01:13;5.43;;;2.37;;
15317;SDS011;7759;52.528;13.346;2024-02-21T14:03:39;4.93;;;2.27;;
15317;SDS011;7759;52.528;13.346;2024-02-21T14:06:05;7.87;;;2.53;;
15317;SDS011;7759;52.528;13.346;2024-02-21T14:08:31;6.20;;;2.33;;
15317;SDS011;7759;52.528;13.346;2024-02-21T14:10:59;3.13;;;2.10;;
15317;SDS011;7759;52.528;13.346;2024-02-21T14:13:25;4.37;;;2.07;;
15317;SDS011;7759;52.528;13.346;2024-02-21T14:15:51;4.03;;;2.23;;
15317;SDS011;7759;52.528;13.346;2024-02-21T14:18:17;3.03;;;2.00;;
15317;SDS011;7759;52.528;13.346;2024-02-21T14:20:43;4.70;;;2.40;;
15317;SDS011;7759;52.528;13.346;2024-02-21T14:23:09;5.27;;;2.07;;
15317;SDS011;7759;52.528;13.346;2024-02-21T14:25:34;4.90;;;2.53;;
15317;SDS011;7759;52.528;13.346;2024-02-21T14:28:00;4.97;;;2.10;;
15317;SDS011;7759;52.528;13.346;2024-02-21T14:30:26;3.97;;;1.83;;
15317;SDS011;7759;52.528;13.346;2024-02-21T14:32:52;5.07;;;2.20;;
15317;SDS011;7759;52.528;13.346;2024-02-21T14:35:18;3.50;;;1.90;;
15317;SDS011;7759;52.528;13.346;2024-02-21T14:37:44;4.23;;;1.90;;
15317;SDS011;7759;52.528;13.346;2024-02-21T14:40:13;3.70;;;2.20;;
15317;SDS011;7759;52.528;13.346;2024-02-21T14:42:39;2.27;;;1.87;;
15317;SDS011;7759;52.528;13.346;2024-02-21T14:45:05;2.87;;;1.53;;